Flight Track Log - Related Links

Times and Time Zones

All times are in EDT time to prevent confusion due to time zone crossing. See the EJA831 flight status page for this flight to view local times or setup timezone preferences in your user account.

Time Position Orientation Groundspeed Altitude Reporting Facility
EDT Latitude Longitude Course Direction KTS MPH feet Rate Location/Type
Thu 11:28:03 AM 38.3667 -77.4167 122° Southeast 195 224 1,700  Level Potomac TRACON
Thu 11:29:03 AM 38.3333 -77.3500 122° Southeast 224 258 3,000 1,550 Climbing Potomac TRACON
Thu 11:30:03 AM 38.2833 -77.2833 134° Southeast 248 285 4,800 1,618 Climbing Potomac TRACON
Thu 11:31:35 AM 38.2208 -77.1986 133° Southeast 269 310 7,100 1,658 Climbing Washington Center
Thu 11:32:35 AM 38.1697 -77.1261 132° Southeast 276 318 9,000 1,041 Climbing Washington Center
Thu 11:33:36 AM 38.1183 -77.0514 131° Southeast 276 318 9,200 1,636 Climbing Washington Center
Thu 11:34:36 AM 38.0544 -77.0025 149° Southeast 276 318 12,300 3,153 Climbing Washington Center
Thu 11:35:34 AM 37.9667 -77.0167 187° South 269 310 15,400 2,319 Climbing Washington Center
Thu 11:36:35 AM 37.8706 -77.0333 188° South 311 358 16,900 1,438 Climbing Washington Center
Thu 11:37:35 AM 37.7661 -77.0497 187° South 356 410 18,300 1,041 Climbing Washington Center
Thu 11:38:36 AM 37.6594 -77.0661 187° South 381 438 19,000 347 Climbing Washington Center
Thu 11:39:36 AM 37.5528 -77.0822 187° South 391 450 19,000 458 Level Washington Center
Thu 11:40:34 AM 37.4464 -77.0986 187° South 391 450 19,900 504 Climbing Washington Center
Thu 11:41:35 AM 37.3272 -77.1197 188° South 391 450 20,000 49 Climbing Washington Center
Thu 11:42:36 AM 37.2222 -77.1647 199° South 391 450 20,000  Level Washington Center
Thu 11:43:34 AM 37.1194 -77.2094 199° South 401 461 20,000  Level Washington Center
Thu 11:44:34 AM 37.0167 -77.2542 199° South 401 461 20,000  Level Washington Center
Thu 11:45:35 AM 36.9139 -77.2986 199° South 406 467 20,000  Level Washington Center
Thu 11:46:35 AM 36.8108 -77.3456 200° South 400 460 20,000  Level Washington Center
Thu 11:47:33 AM 36.7039 -77.3900 198° South 400 460 20,000  Level Washington Center
Thu 11:48:34 AM 36.6050 -77.4342 200° South 400 460 20,000  Level Washington Center
Thu 11:49:35 AM 36.5022 -77.4783 199° South 395 455 20,000  Level Washington Center
Thu 11:50:35 AM 36.4117 -77.5200 200° South 390 449 20,000  Level Washington Center
Thu 11:51:35 AM 36.3089 -77.5639 199° South 390 449 20,000  Level Washington Center
Thu 11:52:36 AM 36.2058 -77.6100 200° South 390 449 20,000  Level Washington Center
Thu 11:53:34 AM 36.1028 -77.6539 199° South 390 449 20,000  Level Washington Center
Thu 11:54:34 AM 36.0000 -77.6947 198° South 390 449 20,000  Level Washington Center
Thu 11:55:34 AM 35.8931 -77.7253 193° South 390 449 20,000  Level Washington Center
Thu 11:56:35 AM 35.7861 -77.7481 190° South 390 449 20,000  Level Washington Center
Thu 11:57:36 AM 35.6792 -77.7731 191° South 390 449 20,000  Level Washington Center
Thu 11:58:36 AM 35.5744 -77.8011 192° South 390 449 20,000 -305 Level Washington Center
Thu 11:59:34 AM 35.4675 -77.8236 190° South 390 449 19,400 -958 Descending Washington Center
Thu 12:00:35 PM 35.3628 -77.8486 191° South 390 449 18,100 -1,210 Descending Washington Center
Thu 12:01:33 PM 35.2622 -77.8714 190° South 384 442 17,000 -1,008 Descending Washington Center
Thu 12:02:34 PM 35.1617 -77.8939 190° South 378 435 16,100 -492 Descending Washington Center
Thu 12:03:35 PM 35.0694 -77.9167 191° South 358 412 16,000 -50 Descending Washington Center
Thu 12:04:35 PM 34.9792 -77.9367 190° South 348 400 16,000 -50 Level Washington Center
Thu 12:05:36 PM 34.8828 -77.9594 191° South 343 395 15,900 -700 Descending Washington Center
Thu 12:06:35 PM 34.7850 -77.9489 175° South 338 389 14,600 -1,261 Descending Washington Center
Thu 12:07:35 PM 34.7069 -77.9844 201° Southwest 315 362 13,400 -1,240 Descending Washington Center
Thu 12:08:36 PM 34.6389 -78.0583 222° Southwest 310 357 12,100 -1,613 Descending Washington Center
Thu 12:09:34 PM 34.5731 -78.1092 212° Southwest 305 351 10,200 -1,983 Descending Washington Center
Thu 12:10:34 PM 34.4961 -78.0994 174° South 273 314 8,200 -2,132 Descending Washington Center
Thu 12:11:35 PM 34.4250 -78.1022 182° South 267 307 5,900 -2,083 Descending Washington Center
Thu 12:12:35 PM 34.3639 -78.1381 206° Southwest 253 291 4,000 -1,008 Descending Washington Center
Thu 12:13:34 PM 34.3053 -78.1439 185° South 236 272 3,900 -504 Descending Washington Center
Thu 12:14:34 PM 34.2622 -78.1072 145° Southeast 192 221 3,000 -600 Descending Washington Center
Thu 12:15:34 PM 34.2189 -78.0858 158° South 181 208 2,700 -298 Descending Washington Center
Thu 12:16:35 PM 34.1753 -78.0744 168° South 170 196 2,400 -295 Descending Washington Center

Login

Don't have an account? Register now (free) for customized features, flight alerts, and more!